Flight Track Log - Related Links

Times and Time Zones

All times are in EDT time to prevent confusion due to time zone crossing. See the UPS984 flight status page for this flight to view local times or setup timezone preferences in your user account.

Time Position Orientation Groundspeed Altitude Reporting Facility
EDT Latitude Longitude Course Direction KTS MPH feet Rate Location/Type
Wed 05:09:53 AM 34.0550 -117.5880 360° North 178 205 1,200  Level FlightAware ADS-B
Wed 05:10:42 AM 34.0320 -117.5500 126° Southeast 222 255 3,000 2,055 Climbing FlightAware ADS-B
Wed 05:11:06 AM 34.0110 -117.5570 195° South 236 272 3,700 2,278 Climbing FlightAware ADS-B
Wed 05:12:01 AM 34.0060 -117.6280 265° West 260 299 6,000 2,138 Climbing FlightAware ADS-B
Wed 05:12:33 AM 34.0270 -117.6700 301° West 276 318 6,800 871 Climbing FlightAware ADS-B
Wed 05:13:03 AM 34.0460 -117.7100 300° West 272 313 6,900 1,167 Climbing FlightAware ADS-B
Wed 05:13:45 AM 34.0700 -117.7670 297° West 271 312 8,200 2,571 Climbing FlightAware ADS-B
Wed 05:14:06 AM 34.0813 -117.7893 301° West 264 304 9,600 2,667 Climbing FlightAware ADS-B
Wed 05:14:39 AM 34.1080 -117.8304 308° West 281 323 10,600 1,644 Climbing FlightAware ADS-B
Wed 05:15:19 AM 34.1459 -117.8853 310° West 327 376 11,600 1,870 Climbing FlightAware ADS-B
Wed 05:15:56 AM 34.1827 -117.9390 310° West 362 417 13,000 2,809 Climbing FlightAware ADS-B
Wed 05:16:53 AM 34.2460 -118.0330 309° West 377 434 16,000 3,133 Climbing FlightAware ADS-B
Wed 05:17:26 AM 34.2840 -118.0870 310° West 386 444 17,700 3,000 Climbing FlightAware ADS-B
Wed 05:18:01 AM 34.3230 -118.1460 309° West 392 451 19,400 2,850 Climbing FlightAware ADS-B
Wed 05:18:46 AM 34.3760 -118.2230 310° West 399 459 21,500 2,692 Climbing FlightAware ADS-B
Wed 05:19:19 AM 34.4140 -118.2800 309° West 404 465 22,900 2,400 Climbing FlightAware ADS-B
Wed 05:20:16 AM 34.4820 -118.3800 310° West 414 476 25,100 2,225 Climbing FlightAware ADS-B
Wed 05:20:48 AM 34.5210 -118.4380 309° West 419 482 26,200 1,870 Climbing FlightAware ADS-B
Wed 05:21:33 AM 34.5940 -118.5010 325° Northwest 430 495 27,500 1,859 Climbing FlightAware ADS-B
Wed 05:21:59 AM 34.6400 -118.5310 332° Northwest 430 495 28,400 2,333 Climbing FlightAware ADS-B
Wed 05:22:45 AM 34.7210 -118.5710 338° Northwest 419 482 30,300 2,242 Climbing FlightAware ADS-B
Wed 05:23:30 AM 34.8080 -118.5960 347° North 419 482 31,800 1,275 Climbing FlightAware ADS-B
Wed 05:24:05 AM 34.8750 -118.6140 348° North 417 480 32,000 171 Climbing FlightAware ADS-B
Wed 05:24:40 AM 34.9400 -118.6310 348° North 415 478 32,000  Level FlightAware ADS-B
Wed 05:25:28 AM 35.0300 -118.6560 347° North 419 482 32,000  Level FlightAware ADS-B
Wed 05:26:08 AM 35.1070 -118.6780 347° North 417 480 32,000  Level FlightAware ADS-B
Wed 05:26:43 AM 35.1730 -118.6960 347° North 417 480 32,000  Level FlightAware ADS-B
Wed 05:27:24 AM 35.2490 -118.7180 347° North 416 479 32,000  Level FlightAware ADS-B
Wed 05:28:07 AM 35.3290 -118.7400 347° North 415 478 32,000  Level FlightAware ADS-B
Wed 05:28:44 AM 35.4000 -118.7600 347° North 414 476 32,000  Level FlightAware ADS-B
Wed 05:29:16 AM 35.4590 -118.7760 348° North 413 475 32,000  Level FlightAware ADS-B
Wed 05:30:00 AM 35.5410 -118.7990 347° North 411 473 32,000  Level FlightAware ADS-B
Wed 05:30:36 AM 35.6080 -118.8190 346° North 410 472 32,000  Level FlightAware ADS-B
Wed 05:31:13 AM 35.6760 -118.8400 346° North 409 471 32,000  Level FlightAware ADS-B
Wed 05:31:57 AM 35.7560 -118.8650 346° North 408 470 32,000  Level FlightAware ADS-B
Wed 05:32:33 AM 35.8230 -118.8850 346° North 408 470 32,000  Level FlightAware ADS-B
Wed 05:33:36 AM 35.9380 -118.9200 346° North 406 467 32,000  Level FlightAware ADS-B
Wed 05:34:13 AM 36.0050 -118.9400 346° North 406 467 32,000  Level FlightAware ADS-B
Wed 05:34:52 AM 36.0770 -118.9620 346° North 405 466 32,000  Level FlightAware ADS-B
Wed 05:35:26 AM 36.1390 -118.9810 346° North 404 465 32,000  Level FlightAware ADS-B
Wed 05:36:34 AM 36.2610 -119.0180 346° North 403 464 32,000  Level FlightAware ADS-B
Wed 05:37:15 AM 36.3360 -119.0410 346° North 402 463 32,000  Level FlightAware ADS-B
Wed 05:37:54 AM 36.4060 -119.0630 346° North 401 461 32,000  Level FlightAware ADS-B
Wed 05:38:38 AM 36.4850 -119.0870 346° North 399 459 32,000  Level FlightAware ADS-B
Wed 05:39:16 AM 36.5540 -119.1080 346° North 398 458 32,000  Level FlightAware ADS-B
Wed 05:39:55 AM 36.6240 -119.1300 346° North 398 458 32,000  Level FlightAware ADS-B
Wed 05:40:32 AM 36.6900 -119.1510 346° North 397 457 32,000  Level FlightAware ADS-B
Wed 05:41:13 AM 36.7630 -119.1730 346° North 398 458 32,000  Level FlightAware ADS-B
Wed 05:42:12 AM 36.8670 -119.2060 346° North 398 458 32,000  Level FlightAware ADS-B
Wed 05:42:49 AM 36.9330 -119.2260 346° North 397 457 32,000  Level FlightAware ADS-B
Wed 05:43:35 AM 37.0150 -119.2520 346° North 396 456 32,000  Level FlightAware ADS-B
Wed 05:44:13 AM 37.0840 -119.2730 346° North 395 455 32,000  Level FlightAware ADS-B
Wed 05:44:55 AM 37.1580 -119.2970 346° North 394 453 32,000  Level FlightAware ADS-B
Wed 05:45:32 AM 37.2230 -119.3170 346° North 394 453 32,000  Level FlightAware ADS-B
Wed 05:46:16 AM 37.3020 -119.3420 346° North 394 453 32,000  Level FlightAware ADS-B
Wed 05:46:53 AM 37.3670 -119.3630 346° North 393 452 32,000  Level FlightAware ADS-B
Wed 05:47:29 AM 37.4260 -119.3810 346° North 391 450 32,000  Level FlightAware ADS-B
Wed 05:48:14 AM 37.5090 -119.4070 346° North 391 450 32,000  Level FlightAware ADS-B
Wed 05:48:50 AM 37.5730 -119.4280 345° North 392 451 32,000  Level FlightAware ADS-B
Wed 05:49:56 AM 37.6880 -119.4650 346° North 393 452 32,000  Level FlightAware ADS-B
Wed 05:50:37 AM 37.7600 -119.4880 346° North 391 450 32,000  Level FlightAware ADS-B
Wed 05:51:18 AM 37.8330 -119.5110 346° North 394 453 32,000  Level FlightAware ADS-B
Wed 05:51:48 AM 37.8870 -119.5280 346° North 395 455 32,000  Level FlightAware ADS-B
Wed 05:52:27 AM 37.9550 -119.5500 346° North 395 455 32,000  Level FlightAware ADS-B
Wed 05:53:04 AM 38.0210 -119.5710 346° North 396 456 32,000  Level FlightAware ADS-B
Wed 05:53:41 AM 38.0870 -119.5920 346° North 398 458 32,000  Level FlightAware ADS-B
Wed 05:54:23 AM 38.1545 -119.6144 345° North 400 460 32,000  Level FlightAware ADS-B
Wed 05:54:55 AM 38.2160 -119.6340 346° North 400 460 32,000  Level FlightAware ADS-B
Wed 05:55:42 AM 38.3011 -119.6620 346° North 402 463 32,000  Level FlightAware ADS-B
Wed 05:56:23 AM 38.3778 -119.6866 346° North 402 463 32,000  Level FlightAware ADS-B
Wed 05:56:58 AM 38.4410 -119.7070 346° North 404 465 32,000  Level FlightAware ADS-B
Wed 05:57:42 AM 38.5200 -119.7330 346° North 406 467 32,000  Level FlightAware ADS-B
Wed 05:57:59 AM 38.5427 -119.7405 346° North 406 467 32,000  Level FlightAware ADS-B
Wed 05:58:32 AM 38.6100 -119.7630 345° North 406 467 32,000  Level FlightAware ADS-B
Wed 05:59:02 AM 38.6660 -119.7810 346° North 407 468 32,000  Level FlightAware ADS-B
Wed 05:59:20 AM 38.6998 -119.7918 346° North 408 470 32,000  Level FlightAware ADS-B
Wed 06:00:03 AM 38.7754 -119.8167 346° North 409 471 32,000  Level FlightAware ADS-B
Wed 06:00:33 AM 38.8344 -119.8360 346° North 410 472 32,000  Level FlightAware ADS-B
Wed 06:01:03 AM 38.8891 -119.8541 346° North 411 473 32,000  Level FlightAware ADS-B
Wed 06:01:43 AM 38.9607 -119.8779 346° North 413 475 32,000  Level FlightAware ADS-B
Wed 06:02:22 AM 39.0346 -119.9023 346° North 413 475 32,000  Level FlightAware ADS-B
Wed 06:02:52 AM 39.0914 -119.9210 346° North 414 476 32,000  Level FlightAware ADS-B
Wed 06:03:23 AM 39.1435 -119.9384 345° North 414 476 32,000  Level FlightAware ADS-B
Wed 06:04:03 AM 39.2227 -119.9648 346° North 414 476 32,000  Level FlightAware ADS-B
Wed 06:04:33 AM 39.2764 -119.9827 346° North 414 476 32,000  Level FlightAware ADS-B
Wed 06:05:03 AM 39.3297 -120.0005 345° North 415 478 32,000  Level FlightAware ADS-B
Wed 06:05:33 AM 39.3870 -120.0197 346° North 414 476 32,000  Level FlightAware ADS-B
Wed 06:06:03 AM 39.4435 -120.0386 345° North 415 478 32,000  Level FlightAware ADS-B
Wed 06:06:33 AM 39.5005 -120.0579 345° North 415 478 32,000  Level FlightAware ADS-B
Wed 06:07:03 AM 39.5570 -120.0767 346° North 415 478 32,000  Level FlightAware ADS-B
Wed 06:07:33 AM 39.6128 -120.0956 345° North 417 480 32,000  Level FlightAware ADS-B
Wed 06:08:03 AM 39.6654 -120.1133 345° North 417 480 32,000  Level FlightAware ADS-B
Wed 06:08:33 AM 39.7174 -120.1308 345° North 419 482 32,000  Level FlightAware ADS-B
Wed 06:09:03 AM 39.7797 -120.1519 345° North 420 483 32,000  Level FlightAware ADS-B
Wed 06:09:33 AM 39.8372 -120.1714 345° North 421 484 32,000  Level FlightAware ADS-B
Wed 06:10:03 AM 39.8936 -120.1906 345° North 421 484 32,000  Level FlightAware ADS-B
Wed 06:10:33 AM 39.9470 -120.2087 345° North 422 486 32,000  Level FlightAware ADS-B
Wed 06:11:03 AM 40.0040 -120.2282 345° North 422 486 32,000  Level FlightAware ADS-B
Wed 06:11:33 AM 40.0617 -120.2479 345° North 423 487 32,000  Level FlightAware ADS-B
Wed 06:12:03 AM 40.1205 -120.2679 345° North 424 488 32,000  Level FlightAware ADS-B
Wed 06:12:33 AM 40.1775 -120.2876 345° North 425 489 32,000  Level FlightAware ADS-B
Wed 06:13:03 AM 40.2347 -120.3072 345° North 425 489 32,000  Level FlightAware ADS-B
Wed 06:13:33 AM 40.2912 -120.3266 345° North 426 490 32,000  Level FlightAware ADS-B
Wed 06:14:03 AM 40.3478 -120.3460 345° North 427 491 32,000  Level FlightAware ADS-B
Wed 06:14:33 AM 40.4037 -120.3653 345° North 427 491 32,000  Level FlightAware ADS-B
Wed 06:15:03 AM 40.4631 -120.3859 345° North 428 493 32,000  Level FlightAware ADS-B
Wed 06:15:33 AM 40.5202 -120.4057 345° North 428 493 32,000  Level FlightAware ADS-B
Wed 06:16:03 AM 40.5760 -120.4250 345° North 428 493 32,000  Level FlightAware ADS-B
Wed 06:16:33 AM 40.6356 -120.4457 345° North 428 493 32,000  Level FlightAware ADS-B
Wed 06:17:03 AM 40.6927 -120.4656 345° North 429 494 32,000  Level FlightAware ADS-B
Wed 06:17:33 AM 40.7506 -120.4858 345° North 430 495 32,000  Level FlightAware ADS-B
Wed 06:18:13 AM 40.8224 -120.5109 345° North 431 496 32,000  Level FlightAware ADS-B
Wed 06:18:43 AM 40.8854 -120.5330 345° North 432 497 32,000  Level FlightAware ADS-B
Wed 06:19:13 AM 40.9398 -120.5520 345° North 432 497 32,000  Level FlightAware ADS-B
Wed 06:20:13 AM 41.0300 -120.5840 345° North 430 495 32,000  Level FlightAware ADS-B
Wed 06:20:38 AM 41.0710 -120.5990 345° North 430 495 32,000  Level FlightAware ADS-B
Wed 06:21:26 AM 41.1490 -120.6260 345° North 430 495 32,000  Level FlightAware ADS-B
Wed 06:22:02 AM 41.2080 -120.6470 345° North 430 495 32,000  Level FlightAware ADS-B
Wed 06:22:38 AM 41.2670 -120.6680 345° North 430 495 32,000  Level FlightAware ADS-B
Wed 06:23:14 AM 41.3260 -120.6890 345° North 430 495 32,000  Level FlightAware ADS-B
Wed 06:24:02 AM 41.4040 -120.7170 345° North 430 495 32,000  Level FlightAware ADS-B
Wed 06:24:38 AM 41.4630 -120.7380 345° North 430 495 32,000  Level FlightAware ADS-B
Wed 06:25:39 AM 41.5630 -120.7740 345° North 430 495 32,000  Level FlightAware ADS-B
Wed 06:26:15 AM 41.6210 -120.7950 345° North 430 495 32,000  Level FlightAware ADS-B
Wed 06:26:39 AM 41.6610 -120.8090 345° North 430 495 32,000  Level FlightAware ADS-B
Wed 06:27:27 AM 41.7390 -120.8370 345° North 430 495 32,000  Level FlightAware ADS-B
Wed 06:28:03 AM 41.7980 -120.8580 345° North 430 495 32,000  Level FlightAware ADS-B
Wed 06:28:40 AM 41.8580 -120.8800 345° North 430 495 32,000  Level FlightAware ADS-B
Wed 06:29:04 AM 41.8970 -120.8940 345° North 430 495 32,000  Level FlightAware ADS-B
Wed 06:30:10 AM 42.2278 -121.0136 345° North 453 521 32,000  Level Seattle Center
Wed 06:31:10 AM 42.3464 -121.0572 345° North 446 513 32,000  Level Seattle Center
Wed 06:32:10 AM 42.4675 -121.1017 345° North 447 514 32,000  Level Seattle Center
Wed 06:33:10 AM 42.5844 -121.1450 345° North 447 514 32,000  Level Seattle Center
Wed 06:34:10 AM 42.7042 -121.1894 345° North 448 516 32,000  Level Seattle Center
Wed 06:39:15 AM 43.3220 -121.4210 345° North 453 521 32,000  Level FlightAware ADS-B
Wed 06:40:05 AM 43.4080 -121.4550 344° North 453 521 32,000  Level FlightAware ADS-B
Wed 06:40:29 AM 43.4490 -121.4720 343° North 453 521 32,000  Level FlightAware ADS-B
Wed 06:41:17 AM 43.5310 -121.5040 344° North 453 521 32,000  Level FlightAware ADS-B
Wed 06:41:53 AM 43.5930 -121.5280 344° North 453 521 32,000  Level FlightAware ADS-B
Wed 06:42:29 AM 43.6540 -121.5530 343° North 453 521 32,000  Level FlightAware ADS-B
Wed 06:43:08 AM 43.7960 -121.6030 346° North 454 522 32,000  Level FlightAware ADS-B
Wed 06:43:40 AM 43.8620 -121.6280 345° North 455 524 32,000  Level FlightAware ADS-B
Wed 06:44:22 AM 43.9390 -121.6590 344° North 455 524 32,000  Level FlightAware ADS-B
Wed 06:44:58 AM 44.0010 -121.6830 344° North 455 524 32,000  Level FlightAware ADS-B
Wed 06:45:20 AM 44.0650 -121.7070 345° North 457 526 32,000  Level FlightAware ADS-B
Wed 06:46:04 AM 44.1540 -121.7420 344° North 458 527 32,000  Level FlightAware ADS-B
Wed 06:46:54 AM 44.2550 -121.7820 344° North 460 529 32,000  Level FlightAware ADS-B
Wed 06:47:34 AM 44.3390 -121.8140 345° North 462 532 32,000  Level FlightAware ADS-B
Wed 06:48:00 AM 44.3900 -121.8350 344° North 462 532 32,000  Level FlightAware ADS-B
Wed 06:48:43 AM 44.4780 -121.8690 345° North 463 533 32,000  Level FlightAware ADS-B
Wed 06:49:26 AM 44.5700 -121.9060 344° North 464 534 32,000  Level FlightAware ADS-B
Wed 06:50:06 AM 44.6490 -121.9370 344° North 464 534 32,000  Level FlightAware ADS-B
Wed 06:50:48 AM 44.7380 -121.9730 344° North 465 535 32,000  Level FlightAware ADS-B
Wed 06:51:28 AM 44.8190 -122.0050 344° North 466 536 32,000  Level FlightAware ADS-B
Wed 06:52:38 AM 44.9670 -122.0640 344° North 467 537 32,000  Level FlightAware ADS-B
Wed 06:53:12 AM 45.0380 -122.0930 344° North 468 539 32,000  Level FlightAware ADS-B
Wed 06:54:01 AM 45.1413 -122.1350 344° North 468 539 32,000  Level FlightAware ADS-B
Wed 06:54:32 AM 45.2050 -122.1610 344° North 468 539 32,000  Level FlightAware ADS-B
Wed 06:55:03 AM 45.2689 -122.1860 345° North 469 540 32,000  Level FlightAware ADS-B
Wed 06:55:33 AM 45.3333 -122.2130 344° North 469 540 32,000  Level FlightAware ADS-B
Wed 06:56:03 AM 45.3960 -122.2380 344° North 470 541 32,000  Level FlightAware ADS-B
Wed 06:56:34 AM 45.4593 -122.2640 344° North 470 541 32,000  Level FlightAware ADS-B
Wed 06:57:04 AM 45.5225 -122.2900 344° North 471 542 32,000  Level FlightAware ADS-B
Wed 06:57:34 AM 45.5853 -122.3160 344° North 472 543 32,000  Level FlightAware ADS-B
Wed 06:58:04 AM 45.6483 -122.3420 344° North 472 543 32,000  Level FlightAware ADS-B
Wed 06:58:34 AM 45.7115 -122.3680 344° North 472 543 32,000  Level FlightAware ADS-B
Wed 06:59:05 AM 45.7748 -122.3940 344° North 470 541 32,000 -421 Level FlightAware ADS-B
Wed 06:59:31 AM 45.8290 -122.4170 344° North 469 540 31,600 -906 Descending FlightAware ADS-B
Wed 06:59:58 AM 45.8876 -122.4340 349° North 467 537 31,200 -1,000 Descending FlightAware ADS-B
Wed 07:00:19 AM 45.9327 -122.4420 353° North 468 539 30,800 -1,176 Descending FlightAware ADS-B
Wed 07:00:49 AM 45.9979 -122.4490 356° North 471 542 30,200 -1,180 Descending FlightAware ADS-B
Wed 07:01:20 AM 46.0653 -122.4570 355° North 473 544 29,600 -1,065 Descending FlightAware ADS-B
Wed 07:01:51 AM 46.1315 -122.4630 356° North 471 542 29,100 -885 Descending FlightAware ADS-B
Wed 07:02:21 AM 46.1966 -122.4700 356° North 468 539 28,700 -800 Descending FlightAware ADS-B
Wed 07:02:51 AM 46.2616 -122.4770 356° North 466 536 28,300 -828 Descending FlightAware ADS-B
Wed 07:03:19 AM 46.3222 -122.4830 356° North 464 534 27,900 -1,017 Descending FlightAware ADS-B
Wed 07:03:50 AM 46.3867 -122.4900 356° North 457 526 27,300 -1,869 Descending FlightAware ADS-B
Wed 07:04:20 AM 46.4500 -122.4970 356° North 450 518 26,000 -2,516 Descending FlightAware ADS-B
Wed 07:04:52 AM 46.5150 -122.5040 356° North 443 510 24,700 -2,582 Descending FlightAware ADS-B
Wed 07:05:39 AM 46.6113 -122.5130 356° North 436 502 22,600 -2,462 Descending FlightAware ADS-B
Wed 07:06:10 AM 46.6716 -122.5080 North 427 491 21,500 -2,226 Descending FlightAware ADS-B
Wed 07:06:41 AM 46.7328 -122.5040 North 421 484 20,300 -2,262 Descending FlightAware ADS-B
Wed 07:07:11 AM 46.7913 -122.5020 North 411 473 19,200 -2,182 Descending FlightAware ADS-B
Wed 07:07:47 AM 46.8579 -122.4990 North 399 459 17,900 -2,273 Descending FlightAware ADS-B
Wed 07:08:17 AM 46.9137 -122.4980 North 397 457 16,700 -2,361 Descending FlightAware ADS-B
Wed 07:08:48 AM 46.9686 -122.4960 North 391 450 15,500 -2,262 Descending FlightAware ADS-B
Wed 07:09:18 AM 47.0226 -122.4940 North 385 443 14,400 -2,200 Descending FlightAware ADS-B
Wed 07:09:48 AM 47.0764 -122.4920 North 381 438 13,300 -2,200 Descending FlightAware ADS-B
Wed 07:10:18 AM 47.1290 -122.4900 North 376 433 12,200 -2,000 Descending FlightAware ADS-B
Wed 07:10:48 AM 47.1807 -122.4880 North 367 422 11,300 -1,770 Descending FlightAware ADS-B
Wed 07:11:19 AM 47.2312 -122.4870 North 357 411 10,400 -1,393 Descending FlightAware ADS-B
Wed 07:11:44 AM 47.2716 -122.4850 North 340 391 10,000 -750 Descending FlightAware ADS-B
Wed 07:11:59 AM 47.2947 -122.4840 North 326 375 9,900 -414 Descending FlightAware ADS-B
Wed 07:12:13 AM 47.3156 -122.4830 North 314 361 9,800 -333 Descending FlightAware ADS-B
Wed 07:12:17 AM 47.3214 -122.4840 353° North 308 354 9,800  Level FlightAware ADS-B
Wed 07:12:22 AM 47.3278 -122.4850 354° North 302 348 9,800 300 Level FlightAware ADS-B
Wed 07:12:37 AM 47.3480 -122.4900 350° North 285 328 9,900 194 Climbing FlightAware ADS-B
Wed 07:12:53 AM 47.3681 -122.4950 350° North 271 312 9,900 -581 Level FlightAware ADS-B
Wed 07:13:08 AM 47.3864 -122.5000 350° North 259 298 9,600 -1,862 Descending FlightAware ADS-B
Wed 07:13:22 AM 47.4033 -122.5040 351° North 257 296 9,000 -2,143 Descending FlightAware ADS-B
Wed 07:13:36 AM 47.4189 -122.5080 350° North 254 292 8,600 -1,862 Descending FlightAware ADS-B
Wed 07:13:51 AM 47.4361 -122.5130 349° North 251 289 8,100 -2,129 Descending FlightAware ADS-B
Wed 07:14:07 AM 47.4548 -122.5180 350° North 251 289 7,500 -2,483 Descending FlightAware ADS-B
Wed 07:14:20 AM 47.4699 -122.5220 350° North 255 293 6,900 -2,483 Descending FlightAware ADS-B
Wed 07:14:36 AM 47.4878 -122.5270 349° North 255 293 6,300 -1,935 Descending FlightAware ADS-B
Wed 07:14:51 AM 47.5049 -122.5320 349° North 248 285 5,900 -1,800 Descending FlightAware ADS-B
Wed 07:15:06 AM 47.5217 -122.5370 349° North 244 281 5,400 -2,129 Descending FlightAware ADS-B
Wed 07:15:22 AM 47.5394 -122.5420 349° North 246 283 4,800 -2,105 Descending FlightAware ADS-B
Wed 07:16:03 AM 47.5864 -122.5500 353° North 248 285 3,400 -1,789 Descending FlightAware ADS-B
Wed 07:16:19 AM 47.6039 -122.5510 358° North 235 270 3,100 -667 Descending FlightAware ADS-B
Wed 07:16:39 AM 47.6245 -122.5520 358° North 221 254 3,000 -571 Descending FlightAware ADS-B
Wed 07:17:01 AM 47.6467 -122.5490 North 221 254 2,700 -900 Descending FlightAware ADS-B
Wed 07:17:19 AM 47.6596 -122.5330 40° Northeast 211 243 2,400 -909 Descending FlightAware ADS-B
Wed 07:17:34 AM 47.6673 -122.5150 58° Northeast 212 244 2,200 -667 Descending FlightAware ADS-B
Wed 07:17:46 AM 47.6738 -122.5000 57° Northeast 203 234 2,100 -250 Descending FlightAware ADS-B
Wed 07:17:58 AM 47.6792 -122.4860 60° Northeast 193 222 2,100  Level FlightAware ADS-B
Wed 07:18:06 AM 47.6810 -122.4760 75° East 189 217 2,100  Level FlightAware ADS-B
Wed 07:18:13 AM 47.6804 -122.4670 96° East 187 215 2,100  Level FlightAware ADS-B
Wed 07:18:18 AM 47.6790 -122.4620 113° Southeast 186 214 2,100  Level FlightAware ADS-B
Wed 07:18:43 AM 47.6700 -122.4330 115° Southeast 180 207 2,100  Level FlightAware ADS-B
Wed 07:18:59 AM 47.6636 -122.4170 121° Southeast 180 207 2,100  Level FlightAware ADS-B
Wed 07:19:02 AM 47.6615 -122.4140 136° Southeast 176 203 2,100  Level FlightAware ADS-B
Wed 07:19:07 AM 47.6578 -122.4100 144° Southeast 173 199 2,100  Level FlightAware ADS-B
Wed 07:19:12 AM 47.6547 -122.4080 157° South 174 200 2,100  Level FlightAware ADS-B
Wed 07:19:26 AM 47.6452 -122.4000 150° Southeast 169 194 2,100 -207 Level FlightAware ADS-B
Wed 07:19:41 AM 47.6356 -122.3920 151° Southeast 153 176 2,000 -414 Descending FlightAware ADS-B
Wed 07:19:55 AM 47.6265 -122.3840 149° Southeast 154 177 1,900 -667 Descending FlightAware ADS-B
Wed 07:20:08 AM 47.6188 -122.3780 152° Southeast 145 167 1,700 -800 Descending FlightAware ADS-B
Wed 07:20:25 AM 47.6091 -122.3690 148° Southeast 141 162 1,500 -686 Descending FlightAware ADS-B
Wed 07:20:43 AM 47.5987 -122.3610 153° Southeast 143 165 1,300 -811 Descending FlightAware ADS-B
Wed 07:21:02 AM 47.5877 -122.3510 148° Southeast 146 168 1,000 -831 Descending FlightAware ADS-B
Wed 07:21:48 AM 47.5630 -122.3300 150° Southeast 135 155 400 -506 Descending FlightAware ADS-B
Wed 07:22:25 AM 47.5450 -122.3150 151° Southeast 135 155 300 -162 Descending FlightAware ADS-B

Login

Don't have an account? Register now (free) for customized features, flight alerts, and more!